sensor_id;sensor_type;location;lat;lon;timestamp;P1;durP1;ratioP1;P2;durP2;ratioP2
4521;SDS011;2273;48.464;11.926;2023-02-23T00:01:08;19.57;;;13.43;;
4521;SDS011;2273;48.464;11.926;2023-02-23T00:03:38;20.97;;;14.67;;
4521;SDS011;2273;48.464;11.926;2023-02-23T00:06:04;20.87;;;14.23;;
4521;SDS011;2273;48.464;11.926;2023-02-23T00:08:30;28.67;;;14.73;;
4521;SDS011;2273;48.464;11.926;2023-02-23T00:10:59;23.60;;;16.27;;
4521;SDS011;2273;48.464;11.926;2023-02-23T00:13:25;20.53;;;14.33;;
4521;SDS011;2273;48.464;11.926;2023-02-23T00:15:50;22.53;;;15.80;;
4521;SDS011;2273;48.464;11.926;2023-02-23T00:18:16;24.33;;;14.70;;
4521;SDS011;2273;48.464;11.926;2023-02-23T00:20:41;30.27;;;15.67;;
4521;SDS011;2273;48.464;11.926;2023-02-23T00:23:11;32.57;;;16.87;;
4521;SDS011;2273;48.464;11.926;2023-02-23T00:25:39;25.70;;;15.03;;
4521;SDS011;2273;48.464;11.926;2023-02-23T00:28:06;28.63;;;17.13;;
4521;SDS011;2273;48.464;11.926;2023-02-23T00:30:32;31.93;;;17.27;;
4521;SDS011;2273;48.464;11.926;2023-02-23T00:32:59;22.60;;;14.83;;
4521;SDS011;2273;48.464;11.926;2023-02-23T00:35:25;28.23;;;16.80;;
4521;SDS011;2273;48.464;11.926;2023-02-23T00:37:50;28.47;;;18.30;;
4521;SDS011;2273;48.464;11.926;2023-02-23T00:40:16;29.77;;;17.77;;
4521;SDS011;2273;48.464;11.926;2023-02-23T00:42:45;30.70;;;17.47;;
4521;SDS011;2273;48.464;11.926;2023-02-23T00:45:14;27.57;;;16.63;;
4521;SDS011;2273;48.464;11.926;2023-02-23T00:47:40;32.80;;;17.70;;
4521;SDS011;2273;48.464;11.926;2023-02-23T00:50:08;25.30;;;16.40;;
4521;SDS011;2273;48.464;11.926;2023-02-23T00:52:38;28.70;;;17.77;;
4521;SDS011;2273;48.464;11.926;2023-02-23T00:55:05;28.50;;;17.33;;
4521;SDS011;2273;48.464;11.926;2023-02-23T00:57:35;21.47;;;15.80;;
4521;SDS011;2273;48.464;11.926;2023-02-23T01:00:01;26.27;;;17.10;;
4521;SDS011;2273;48.464;11.926;2023-02-23T01:02:37;27.53;;;17.37;;
4521;SDS011;2273;48.464;11.926;2023-02-23T01:05:02;27.73;;;17.10;;
4521;SDS011;2273;48.464;11.926;2023-02-23T01:07:28;30.43;;;18.67;;
4521;SDS011;2273;48.464;11.926;2023-02-23T01:09:55;27.23;;;17.47;;
4521;SDS011;2273;48.464;11.926;2023-02-23T01:12:21;25.97;;;16.27;;
4521;SDS011;2273;48.464;11.926;2023-02-23T01:14:46;28.13;;;16.93;;
4521;SDS011;2273;48.464;11.926;2023-02-23T01:17:11;32.97;;;18.63;;
4521;SDS011;2273;48.464;11.926;2023-02-23T01:19:37;26.87;;;15.83;;
4521;SDS011;2273;48.464;11.926;2023-02-23T01:22:02;25.87;;;17.50;;
4521;SDS011;2273;48.464;11.926;2023-02-23T01:24:28;28.07;;;17.60;;
4521;SDS011;2273;48.464;11.926;2023-02-23T01:26:53;32.20;;;19.13;;
4521;SDS011;2273;48.464;11.926;2023-02-23T01:29:19;27.63;;;17.70;;
4521;SDS011;2273;48.464;11.926;2023-02-23T01:31:45;31.13;;;19.10;;
4521;SDS011;2273;48.464;11.926;2023-02-23T01:34:16;34.73;;;20.63;;
4521;SDS011;2273;48.464;11.926;2023-02-23T01:36:43;26.90;;;16.27;;
4521;SDS011;2273;48.464;11.926;2023-02-23T01:39:10;31.20;;;18.63;;
4521;SDS011;2273;48.464;11.926;2023-02-23T01:41:39;28.37;;;17.07;;
4521;SDS011;2273;48.464;11.926;2023-02-23T01:44:07;28.63;;;18.00;;
4521;SDS011;2273;48.464;11.926;2023-02-23T01:46:37;25.73;;;16.37;;
4521;SDS011;2273;48.464;11.926;2023-02-23T01:49:04;37.53;;;18.50;;
4521;SDS011;2273;48.464;11.926;2023-02-23T01:51:32;38.13;;;19.20;;
4521;SDS011;2273;48.464;11.926;2023-02-23T01:54:05;36.80;;;19.23;;
4521;SDS011;2273;48.464;11.926;2023-02-23T01:56:33;34.00;;;20.03;;
4521;SDS011;2273;48.464;11.926;2023-02-23T01:59:02;37.93;;;20.07;;
4521;SDS011;2273;48.464;11.926;2023-02-23T02:01:30;33.00;;;20.43;;
4521;SDS011;2273;48.464;11.926;2023-02-23T02:04:00;30.30;;;19.40;;
4521;SDS011;2273;48.464;11.926;2023-02-23T02:06:30;36.17;;;21.43;;
4521;SDS011;2273;48.464;11.926;2023-02-23T02:08:58;36.53;;;22.40;;
4521;SDS011;2273;48.464;11.926;2023-02-23T02:11:31;30.03;;;20.10;;
4521;SDS011;2273;48.464;11.926;2023-02-23T02:14:03;35.20;;;19.83;;
4521;SDS011;2273;48.464;11.926;2023-02-23T02:24:51;39.67;;;22.53;;
4521;SDS011;2273;48.464;11.926;2023-02-23T02:33:05;32.77;;;21.53;;
4521;SDS011;2273;48.464;11.926;2023-02-23T02:41:37;37.57;;;22.63;;
4521;SDS011;2273;48.464;11.926;2023-02-23T02:44:28;38.20;;;23.70;;
4521;SDS011;2273;48.464;11.926;2023-02-23T02:47:00;40.60;;;24.60;;
4521;SDS011;2273;48.464;11.926;2023-02-23T02:49:37;33.93;;;20.97;;
4521;SDS011;2273;48.464;11.926;2023-02-23T02:52:17;33.50;;;22.27;;
4521;SDS011;2273;48.464;11.926;2023-02-23T02:54:47;39.30;;;21.43;;
4521;SDS011;2273;48.464;11.926;2023-02-23T02:57:18;35.40;;;21.90;;
4521;SDS011;2273;48.464;11.926;2023-02-23T02:59:47;37.13;;;22.07;;
4521;SDS011;2273;48.464;11.926;2023-02-23T03:02:34;34.50;;;20.90;;
4521;SDS011;2273;48.464;11.926;2023-02-23T03:05:23;36.30;;;23.37;;
4521;SDS011;2273;48.464;11.926;2023-02-23T03:08:14;41.43;;;21.67;;
4521;SDS011;2273;48.464;11.926;2023-02-23T03:11:20;37.57;;;22.90;;
4521;SDS011;2273;48.464;11.926;2023-02-23T03:14:50;34.97;;;21.23;;
4521;SDS011;2273;48.464;11.926;2023-02-23T03:23:05;37.20;;;22.00;;
4521;SDS011;2273;48.464;11.926;2023-02-23T03:25:56;37.10;;;24.23;;
4521;SDS011;2273;48.464;11.926;2023-02-23T03:28:48;32.90;;;21.03;;
4521;SDS011;2273;48.464;11.926;2023-02-23T03:31:53;39.57;;;23.17;;
4521;SDS011;2273;48.464;11.926;2023-02-23T03:34:52;35.47;;;21.80;;
4521;SDS011;2273;48.464;11.926;2023-02-23T03:37:50;37.97;;;24.27;;
4521;SDS011;2273;48.464;11.926;2023-02-23T03:40:56;40.30;;;22.20;;
4521;SDS011;2273;48.464;11.926;2023-02-23T03:43:45;36.17;;;22.73;;
4521;SDS011;2273;48.464;11.926;2023-02-23T03:46:30;40.33;;;23.30;;
4521;SDS011;2273;48.464;11.926;2023-02-23T03:49:15;38.63;;;23.30;;
4521;SDS011;2273;48.464;11.926;2023-02-23T03:52:04;37.10;;;22.13;;
4521;SDS011;2273;48.464;11.926;2023-02-23T03:54:54;41.10;;;23.23;;
4521;SDS011;2273;48.464;11.926;2023-02-23T03:57:40;39.30;;;24.07;;
4521;SDS011;2273;48.464;11.926;2023-02-23T04:00:27;42.43;;;23.30;;
4521;SDS011;2273;48.464;11.926;2023-02-23T04:03:14;39.03;;;23.70;;
4521;SDS011;2273;48.464;11.926;2023-02-23T04:05:59;45.10;;;24.87;;
4521;SDS011;2273;48.464;11.926;2023-02-23T04:08:44;35.47;;;23.43;;
4521;SDS011;2273;48.464;11.926;2023-02-23T04:14:38;41.40;;;23.27;;
4521;SDS011;2273;48.464;11.926;2023-02-23T04:17:09;41.90;;;24.93;;
4521;SDS011;2273;48.464;11.926;2023-02-23T04:19:35;39.87;;;24.87;;
4521;SDS011;2273;48.464;11.926;2023-02-23T04:22:00;38.27;;;24.23;;
4521;SDS011;2273;48.464;11.926;2023-02-23T04:24:27;39.50;;;22.57;;
4521;SDS011;2273;48.464;11.926;2023-02-23T04:26:52;37.20;;;23.80;;
4521;SDS011;2273;48.464;11.926;2023-02-23T04:29:18;41.67;;;24.03;;
4521;SDS011;2273;48.464;11.926;2023-02-23T04:31:43;36.80;;;23.40;;
4521;SDS011;2273;48.464;11.926;2023-02-23T04:34:09;43.30;;;23.97;;
4521;SDS011;2273;48.464;11.926;2023-02-23T04:36:34;36.70;;;21.70;;
4521;SDS011;2273;48.464;11.926;2023-02-23T04:39:00;33.77;;;22.30;;
4521;SDS011;2273;48.464;11.926;2023-02-23T04:41:26;37.90;;;23.50;;
4521;SDS011;2273;48.464;11.926;2023-02-23T04:43:51;34.80;;;21.90;;
4521;SDS011;2273;48.464;11.926;2023-02-23T04:46:16;36.53;;;20.30;;
4521;SDS011;2273;48.464;11.926;2023-02-23T04:48:42;39.30;;;21.33;;
4521;SDS011;2273;48.464;11.926;2023-02-23T04:51:07;36.10;;;22.30;;
4521;SDS011;2273;48.464;11.926;2023-02-23T04:53:33;35.10;;;21.97;;
4521;SDS011;2273;48.464;11.926;2023-02-23T04:55:58;35.17;;;23.20;;
4521;SDS011;2273;48.464;11.926;2023-02-23T04:58:23;37.60;;;24.00;;
4521;SDS011;2273;48.464;11.926;2023-02-23T05:00:49;36.00;;;22.20;;
4521;SDS011;2273;48.464;11.926;2023-02-23T05:03:14;37.20;;;22.90;;
4521;SDS011;2273;48.464;11.926;2023-02-23T05:05:41;34.43;;;22.33;;
4521;SDS011;2273;48.464;11.926;2023-02-23T05:08:07;41.30;;;23.17;;
4521;SDS011;2273;48.464;11.926;2023-02-23T05:10:33;40.63;;;24.43;;
4521;SDS011;2273;48.464;11.926;2023-02-23T05:12:59;33.60;;;22.40;;
4521;SDS011;2273;48.464;11.926;2023-02-23T05:15:25;37.30;;;22.47;;
4521;SDS011;2273;48.464;11.926;2023-02-23T05:17:52;36.10;;;22.50;;
4521;SDS011;2273;48.464;11.926;2023-02-23T05:20:19;38.20;;;23.07;;
4521;SDS011;2273;48.464;11.926;2023-02-23T05:22:44;38.33;;;23.00;;
4521;SDS011;2273;48.464;11.926;2023-02-23T05:25:09;46.13;;;27.27;;
4521;SDS011;2273;48.464;11.926;2023-02-23T05:27:36;41.10;;;25.23;;
4521;SDS011;2273;48.464;11.926;2023-02-23T05:30:01;48.10;;;26.53;;
4521;SDS011;2273;48.464;11.926;2023-02-23T05:32:27;39.87;;;23.90;;
4521;SDS011;2273;48.464;11.926;2023-02-23T05:34:53;38.97;;;22.70;;
4521;SDS011;2273;48.464;11.926;2023-02-23T05:37:18;45.43;;;26.70;;
4521;SDS011;2273;48.464;11.926;2023-02-23T05:39:45;38.10;;;25.23;;
4521;SDS011;2273;48.464;11.926;2023-02-23T05:42:11;41.77;;;24.60;;
4521;SDS011;2273;48.464;11.926;2023-02-23T05:44:36;45.20;;;25.40;;
4521;SDS011;2273;48.464;11.926;2023-02-23T05:47:02;44.40;;;27.27;;
4521;SDS011;2273;48.464;11.926;2023-02-23T05:49:27;39.70;;;24.37;;
4521;SDS011;2273;48.464;11.926;2023-02-23T05:51:53;42.10;;;25.33;;
4521;SDS011;2273;48.464;11.926;2023-02-23T05:54:18;47.00;;;26.23;;
4521;SDS011;2273;48.464;11.926;2023-02-23T05:56:43;48.37;;;25.60;;
4521;SDS011;2273;48.464;11.926;2023-02-23T05:59:09;39.90;;;25.10;;
4521;SDS011;2273;48.464;11.926;2023-02-23T06:01:34;39.17;;;24.80;;
4521;SDS011;2273;48.464;11.926;2023-02-23T06:04:00;37.67;;;24.03;;
4521;SDS011;2273;48.464;11.926;2023-02-23T06:06:25;41.90;;;22.60;;
4521;SDS011;2273;48.464;11.926;2023-02-23T06:08:52;41.90;;;24.20;;
4521;SDS011;2273;48.464;11.926;2023-02-23T06:11:17;40.10;;;23.30;;
4521;SDS011;2273;48.464;11.926;2023-02-23T06:13:43;37.27;;;23.17;;
4521;SDS011;2273;48.464;11.926;2023-02-23T06:16:08;37.73;;;23.13;;
4521;SDS011;2273;48.464;11.926;2023-02-23T06:18:34;39.13;;;23.30;;
4521;SDS011;2273;48.464;11.926;2023-02-23T06:21:00;43.30;;;23.70;;
4521;SDS011;2273;48.464;11.926;2023-02-23T06:23:29;32.27;;;21.33;;
4521;SDS011;2273;48.464;11.926;2023-02-23T06:25:55;35.03;;;22.20;;
4521;SDS011;2273;48.464;11.926;2023-02-23T06:28:20;40.33;;;22.60;;
4521;SDS011;2273;48.464;11.926;2023-02-23T06:30:46;43.23;;;25.50;;
4521;SDS011;2273;48.464;11.926;2023-02-23T06:33:12;38.37;;;23.50;;
4521;SDS011;2273;48.464;11.926;2023-02-23T06:35:38;40.70;;;25.63;;
4521;SDS011;2273;48.464;11.926;2023-02-23T06:38:03;37.90;;;23.73;;
4521;SDS011;2273;48.464;11.926;2023-02-23T06:40:30;41.83;;;25.53;;
4521;SDS011;2273;48.464;11.926;2023-02-23T06:42:56;40.50;;;24.93;;
4521;SDS011;2273;48.464;11.926;2023-02-23T06:45:21;43.50;;;27.23;;
4521;SDS011;2273;48.464;11.926;2023-02-23T06:47:47;38.90;;;25.03;;
4521;SDS011;2273;48.464;11.926;2023-02-23T06:50:12;38.67;;;24.57;;
4521;SDS011;2273;48.464;11.926;2023-02-23T06:52:38;43.23;;;24.33;;
4521;SDS011;2273;48.464;11.926;2023-02-23T06:55:04;37.30;;;23.67;;
4521;SDS011;2273;48.464;11.926;2023-02-23T06:57:30;31.90;;;20.43;;
4521;SDS011;2273;48.464;11.926;2023-02-23T06:59:56;42.07;;;24.70;;
4521;SDS011;2273;48.464;11.926;2023-02-23T07:02:22;47.97;;;25.37;;
4521;SDS011;2273;48.464;11.926;2023-02-23T07:04:47;48.33;;;28.00;;
4521;SDS011;2273;48.464;11.926;2023-02-23T07:07:13;46.10;;;26.60;;
4521;SDS011;2273;48.464;11.926;2023-02-23T07:09:39;68.43;;;37.73;;
4521;SDS011;2273;48.464;11.926;2023-02-23T07:12:05;88.33;;;44.57;;
4521;SDS011;2273;48.464;11.926;2023-02-23T07:14:30;83.80;;;42.37;;
4521;SDS011;2273;48.464;11.926;2023-02-23T07:16:57;67.20;;;36.43;;
4521;SDS011;2273;48.464;11.926;2023-02-23T07:19:22;53.87;;;31.70;;
4521;SDS011;2273;48.464;11.926;2023-02-23T07:21:48;52.60;;;29.60;;
4521;SDS011;2273;48.464;11.926;2023-02-23T07:24:13;42.20;;;26.43;;
4521;SDS011;2273;48.464;11.926;2023-02-23T07:26:39;49.37;;;29.57;;
4521;SDS011;2273;48.464;11.926;2023-02-23T07:29:08;47.40;;;25.60;;
4521;SDS011;2273;48.464;11.926;2023-02-23T07:31:34;45.27;;;25.90;;
4521;SDS011;2273;48.464;11.926;2023-02-23T07:34:01;45.20;;;27.13;;
4521;SDS011;2273;48.464;11.926;2023-02-23T07:36:26;49.90;;;28.97;;
4521;SDS011;2273;48.464;11.926;2023-02-23T07:38:52;42.77;;;27.77;;
4521;SDS011;2273;48.464;11.926;2023-02-23T07:41:18;54.83;;;29.27;;
4521;SDS011;2273;48.464;11.926;2023-02-23T07:43:43;50.70;;;27.70;;
4521;SDS011;2273;48.464;11.926;2023-02-23T07:46:09;44.80;;;27.43;;
4521;SDS011;2273;48.464;11.926;2023-02-23T07:48:34;48.23;;;28.70;;
4521;SDS011;2273;48.464;11.926;2023-02-23T07:50:59;46.23;;;27.00;;
4521;SDS011;2273;48.464;11.926;2023-02-23T07:53:25;45.67;;;26.13;;
4521;SDS011;2273;48.464;11.926;2023-02-23T07:55:55;46.90;;;28.67;;
4521;SDS011;2273;48.464;11.926;2023-02-23T07:58:22;47.30;;;27.97;;
4521;SDS011;2273;48.464;11.926;2023-02-23T08:00:47;43.83;;;26.37;;
4521;SDS011;2273;48.464;11.926;2023-02-23T08:03:12;47.53;;;26.97;;
4521;SDS011;2273;48.464;11.926;2023-02-23T08:05:38;49.80;;;27.50;;
4521;SDS011;2273;48.464;11.926;2023-02-23T08:08:04;51.40;;;29.10;;
4521;SDS011;2273;48.464;11.926;2023-02-23T08:10:29;47.53;;;28.60;;
4521;SDS011;2273;48.464;11.926;2023-02-23T08:12:56;41.00;;;26.27;;
4521;SDS011;2273;48.464;11.926;2023-02-23T08:15:21;46.10;;;26.67;;
4521;SDS011;2273;48.464;11.926;2023-02-23T08:17:47;46.83;;;27.53;;
4521;SDS011;2273;48.464;11.926;2023-02-23T08:20:12;43.60;;;27.73;;
4521;SDS011;2273;48.464;11.926;2023-02-23T08:22:38;53.93;;;29.63;;
4521;SDS011;2273;48.464;11.926;2023-02-23T08:25:03;51.03;;;29.10;;
4521;SDS011;2273;48.464;11.926;2023-02-23T08:27:32;52.37;;;28.60;;
4521;SDS011;2273;48.464;11.926;2023-02-23T08:29:58;45.30;;;28.27;;
4521;SDS011;2273;48.464;11.926;2023-02-23T08:32:27;57.40;;;29.77;;
4521;SDS011;2273;48.464;11.926;2023-02-23T08:34:54;47.90;;;26.20;;
4521;SDS011;2273;48.464;11.926;2023-02-23T08:37:22;50.00;;;30.33;;
4521;SDS011;2273;48.464;11.926;2023-02-23T08:39:48;48.63;;;28.10;;
4521;SDS011;2273;48.464;11.926;2023-02-23T08:42:14;46.10;;;28.80;;
4521;SDS011;2273;48.464;11.926;2023-02-23T08:44:39;46.53;;;29.40;;
4521;SDS011;2273;48.464;11.926;2023-02-23T08:47:04;50.57;;;28.87;;
4521;SDS011;2273;48.464;11.926;2023-02-23T08:49:30;45.90;;;28.50;;
4521;SDS011;2273;48.464;11.926;2023-02-23T08:51:57;44.70;;;28.00;;
4521;SDS011;2273;48.464;11.926;2023-02-23T08:54:22;50.17;;;30.93;;
4521;SDS011;2273;48.464;11.926;2023-02-23T08:56:48;47.47;;;27.27;;
4521;SDS011;2273;48.464;11.926;2023-02-23T08:59:13;47.03;;;27.47;;
4521;SDS011;2273;48.464;11.926;2023-02-23T09:01:39;46.63;;;29.77;;
4521;SDS011;2273;48.464;11.926;2023-02-23T09:04:06;42.93;;;27.00;;
4521;SDS011;2273;48.464;11.926;2023-02-23T09:06:31;46.60;;;28.90;;
4521;SDS011;2273;48.464;11.926;2023-02-23T09:08:59;46.20;;;28.30;;
4521;SDS011;2273;48.464;11.926;2023-02-23T09:11:25;48.00;;;30.07;;
4521;SDS011;2273;48.464;11.926;2023-02-23T09:13:50;47.40;;;27.63;;
4521;SDS011;2273;48.464;11.926;2023-02-23T09:16:16;42.30;;;27.33;;
4521;SDS011;2273;48.464;11.926;2023-02-23T09:18:41;43.03;;;26.90;;
4521;SDS011;2273;48.464;11.926;2023-02-23T09:21:07;44.73;;;26.93;;
4521;SDS011;2273;48.464;11.926;2023-02-23T09:23:38;53.33;;;27.57;;
4521;SDS011;2273;48.464;11.926;2023-02-23T09:26:04;48.30;;;27.10;;
4521;SDS011;2273;48.464;11.926;2023-02-23T09:28:31;44.20;;;26.20;;
4521;SDS011;2273;48.464;11.926;2023-02-23T09:31:02;47.37;;;27.23;;
4521;SDS011;2273;48.464;11.926;2023-02-23T09:33:29;46.60;;;26.53;;
4521;SDS011;2273;48.464;11.926;2023-02-23T09:35:55;47.60;;;29.13;;
4521;SDS011;2273;48.464;11.926;2023-02-23T09:38:20;47.90;;;28.70;;
4521;SDS011;2273;48.464;11.926;2023-02-23T09:40:47;49.87;;;28.00;;
4521;SDS011;2273;48.464;11.926;2023-02-23T09:43:30;42.60;;;26.40;;
4521;SDS011;2273;48.464;11.926;2023-02-23T09:48:57;41.27;;;26.60;;
4521;SDS011;2273;48.464;11.926;2023-02-23T09:51:25;42.00;;;25.83;;
4521;SDS011;2273;48.464;11.926;2023-02-23T09:53:58;53.73;;;27.80;;
4521;SDS011;2273;48.464;11.926;2023-02-23T09:56:33;42.70;;;27.50;;
4521;SDS011;2273;48.464;11.926;2023-02-23T09:59:01;46.90;;;26.87;;
4521;SDS011;2273;48.464;11.926;2023-02-23T10:01:35;52.33;;;27.90;;
4521;SDS011;2273;48.464;11.926;2023-02-23T10:06:36;41.97;;;27.10;;
4521;SDS011;2273;48.464;11.926;2023-02-23T10:11:44;46.83;;;25.00;;
4521;SDS011;2273;48.464;11.926;2023-02-23T10:14:32;50.00;;;27.23;;
4521;SDS011;2273;48.464;11.926;2023-02-23T10:19:56;46.40;;;27.20;;
4521;SDS011;2273;48.464;11.926;2023-02-23T10:22:28;43.90;;;26.37;;
4521;SDS011;2273;48.464;11.926;2023-02-23T10:25:04;39.53;;;25.90;;
4521;SDS011;2273;48.464;11.926;2023-02-23T10:27:39;45.13;;;26.00;;
4521;SDS011;2273;48.464;11.926;2023-02-23T10:35:47;36.73;;;23.97;;
4521;SDS011;2273;48.464;11.926;2023-02-23T10:38:15;39.63;;;26.27;;
4521;SDS011;2273;48.464;11.926;2023-02-23T10:40:43;43.83;;;26.10;;
4521;SDS011;2273;48.464;11.926;2023-02-23T10:43:10;40.50;;;25.90;;
4521;SDS011;2273;48.464;11.926;2023-02-23T10:45:38;39.73;;;24.23;;
4521;SDS011;2273;48.464;11.926;2023-02-23T10:48:12;46.73;;;25.30;;
4521;SDS011;2273;48.464;11.926;2023-02-23T10:50:40;45.97;;;25.33;;
4521;SDS011;2273;48.464;11.926;2023-02-23T10:56:05;42.13;;;25.13;;
4521;SDS011;2273;48.464;11.926;2023-02-23T10:58:38;41.43;;;25.27;;
4521;SDS011;2273;48.464;11.926;2023-02-23T11:01:04;41.27;;;25.73;;
4521;SDS011;2273;48.464;11.926;2023-02-23T11:06:37;35.97;;;23.67;;
4521;SDS011;2273;48.464;11.926;2023-02-23T11:09:15;37.67;;;23.33;;
4521;SDS011;2273;48.464;11.926;2023-02-23T11:11:54;43.37;;;25.17;;
4521;SDS011;2273;48.464;11.926;2023-02-23T11:14:28;47.77;;;27.83;;
4521;SDS011;2273;48.464;11.926;2023-02-23T11:16:55;41.57;;;23.73;;
4521;SDS011;2273;48.464;11.926;2023-02-23T11:19:29;36.53;;;23.70;;
4521;SDS011;2273;48.464;11.926;2023-02-23T11:22:01;38.50;;;24.07;;
4521;SDS011;2273;48.464;11.926;2023-02-23T11:24:28;36.93;;;24.30;;
4521;SDS011;2273;48.464;11.926;2023-02-23T11:26:58;40.60;;;24.93;;
4521;SDS011;2273;48.464;11.926;2023-02-23T11:29:35;35.57;;;22.60;;
4521;SDS011;2273;48.464;11.926;2023-02-23T11:32:06;36.03;;;23.90;;
4521;SDS011;2273;48.464;11.926;2023-02-23T11:34:37;39.73;;;23.37;;
4521;SDS011;2273;48.464;11.926;2023-02-23T11:39:53;41.00;;;24.53;;
4521;SDS011;2273;48.464;11.926;2023-02-23T11:42:20;39.90;;;23.73;;
4521;SDS011;2273;48.464;11.926;2023-02-23T11:44:50;37.00;;;22.33;;
4521;SDS011;2273;48.464;11.926;2023-02-23T11:47:39;34.77;;;21.60;;
4521;SDS011;2273;48.464;11.926;2023-02-23T11:50:19;50.63;;;24.70;;
4521;SDS011;2273;48.464;11.926;2023-02-23T11:52:47;38.80;;;22.93;;
4521;SDS011;2273;48.464;11.926;2023-02-23T11:55:16;35.37;;;21.67;;
4521;SDS011;2273;48.464;11.926;2023-02-23T11:57:42;56.33;;;22.83;;
4521;SDS011;2273;48.464;11.926;2023-02-23T12:00:09;35.10;;;21.77;;
4521;SDS011;2273;48.464;11.926;2023-02-23T12:02:44;34.60;;;22.23;;
4521;SDS011;2273;48.464;11.926;2023-02-23T12:05:32;34.00;;;20.98;;
4521;SDS011;2273;48.464;11.926;2023-02-23T12:08:10;31.40;;;21.33;;
4521;SDS011;2273;48.464;11.926;2023-02-23T12:10:40;34.60;;;19.20;;
4521;SDS011;2273;48.464;11.926;2023-02-23T12:15:42;25.87;;;16.03;;
4521;SDS011;2273;48.464;11.926;2023-02-23T12:24:14;25.10;;;15.87;;
4521;SDS011;2273;48.464;11.926;2023-02-23T12:26:47;27.60;;;16.90;;
4521;SDS011;2273;48.464;11.926;2023-02-23T12:29:26;30.80;;;17.23;;
4521;SDS011;2273;48.464;11.926;2023-02-23T12:31:56;30.33;;;18.83;;
4521;SDS011;2273;48.464;11.926;2023-02-23T12:34:31;28.60;;;18.27;;
4521;SDS011;2273;48.464;11.926;2023-02-23T12:37:36;31.70;;;19.90;;
4521;SDS011;2273;48.464;11.926;2023-02-23T12:40:14;28.17;;;17.80;;
4521;SDS011;2273;48.464;11.926;2023-02-23T12:42:43;30.77;;;18.00;;
4521;SDS011;2273;48.464;11.926;2023-02-23T12:45:14;26.23;;;17.23;;
4521;SDS011;2273;48.464;11.926;2023-02-23T12:47:54;26.37;;;16.20;;
4521;SDS011;2273;48.464;11.926;2023-02-23T12:50:28;28.63;;;16.27;;
4521;SDS011;2273;48.464;11.926;2023-02-23T12:53:00;23.93;;;17.23;;
4521;SDS011;2273;48.464;11.926;2023-02-23T12:55:33;25.70;;;16.80;;
4521;SDS011;2273;48.464;11.926;2023-02-23T13:01:26;26.43;;;17.30;;
4521;SDS011;2273;48.464;11.926;2023-02-23T13:06:28;25.30;;;16.37;;
4521;SDS011;2273;48.464;11.926;2023-02-23T13:09:17;25.50;;;17.30;;
4521;SDS011;2273;48.464;11.926;2023-02-23T13:17:07;31.33;;;19.80;;
4521;SDS011;2273;48.464;11.926;2023-02-23T13:25:30;28.47;;;17.93;;
4521;SDS011;2273;48.464;11.926;2023-02-23T13:27:59;34.27;;;20.40;;
4521;SDS011;2273;48.464;11.926;2023-02-23T13:30:27;33.90;;;20.10;;
4521;SDS011;2273;48.464;11.926;2023-02-23T13:32:56;27.93;;;17.90;;
4521;SDS011;2273;48.464;11.926;2023-02-23T13:35:22;29.30;;;17.30;;
4521;SDS011;2273;48.464;11.926;2023-02-23T13:37:53;30.00;;;17.73;;
4521;SDS011;2273;48.464;11.926;2023-02-23T13:51:01;21.13;;;14.83;;
4521;SDS011;2273;48.464;11.926;2023-02-23T13:56:14;21.70;;;15.47;;
4521;SDS011;2273;48.464;11.926;2023-02-23T13:58:45;20.93;;;14.90;;
4521;SDS011;2273;48.464;11.926;2023-02-23T14:01:20;25.83;;;14.90;;
4521;SDS011;2273;48.464;11.926;2023-02-23T14:03:57;25.33;;;14.93;;
4521;SDS011;2273;48.464;11.926;2023-02-23T14:06:25;22.30;;;15.30;;
4521;SDS011;2273;48.464;11.926;2023-02-23T14:08:56;23.33;;;13.70;;
4521;SDS011;2273;48.464;11.926;2023-02-23T14:11:28;19.87;;;13.80;;
4521;SDS011;2273;48.464;11.926;2023-02-23T14:14:01;23.77;;;15.63;;
4521;SDS011;2273;48.464;11.926;2023-02-23T14:16:27;25.40;;;14.60;;
4521;SDS011;2273;48.464;11.926;2023-02-23T14:19:09;23.00;;;15.20;;
4521;SDS011;2273;48.464;11.926;2023-02-23T14:21:40;19.50;;;13.23;;
4521;SDS011;2273;48.464;11.926;2023-02-23T14:24:16;20.67;;;14.53;;
4521;SDS011;2273;48.464;11.926;2023-02-23T14:26:43;19.57;;;14.13;;
4521;SDS011;2273;48.464;11.926;2023-02-23T14:29:37;20.20;;;14.93;;
4521;SDS011;2273;48.464;11.926;2023-02-23T14:34:49;20.13;;;14.07;;
4521;SDS011;2273;48.464;11.926;2023-02-23T14:37:17;23.47;;;14.33;;
4521;SDS011;2273;48.464;11.926;2023-02-23T14:39:49;19.90;;;15.20;;
4521;SDS011;2273;48.464;11.926;2023-02-23T14:42:22;17.90;;;12.53;;
4521;SDS011;2273;48.464;11.926;2023-02-23T14:44:49;21.67;;;13.87;;
4521;SDS011;2273;48.464;11.926;2023-02-23T14:47:24;23.00;;;14.07;;
4521;SDS011;2273;48.464;11.926;2023-02-23T14:49:57;17.83;;;12.50;;
4521;SDS011;2273;48.464;11.926;2023-02-23T14:52:28;23.67;;;14.60;;
4521;SDS011;2273;48.464;11.926;2023-02-23T14:55:30;20.70;;;12.93;;
4521;SDS011;2273;48.464;11.926;2023-02-23T14:57:49;18.73;;;12.53;;
4521;SDS011;2273;48.464;11.926;2023-02-23T15:00:21;22.50;;;12.23;;
4521;SDS011;2273;48.464;11.926;2023-02-23T15:03:08;18.90;;;12.53;;
4521;SDS011;2273;48.464;11.926;2023-02-23T15:05:43;20.33;;;11.87;;
4521;SDS011;2273;48.464;11.926;2023-02-23T15:08:15;17.90;;;11.10;;
4521;SDS011;2273;48.464;11.926;2023-02-23T15:10:42;21.07;;;12.50;;
4521;SDS011;2273;48.464;11.926;2023-02-23T15:15:52;18.20;;;12.00;;
4521;SDS011;2273;48.464;11.926;2023-02-23T15:18:20;18.60;;;12.50;;
4521;SDS011;2273;48.464;11.926;2023-02-23T15:20:47;18.63;;;12.20;;
4521;SDS011;2273;48.464;11.926;2023-02-23T15:23:13;18.57;;;12.20;;
4521;SDS011;2273;48.464;11.926;2023-02-23T15:25:41;16.33;;;11.00;;
4521;SDS011;2273;48.464;11.926;2023-02-23T15:28:29;20.03;;;11.80;;
4521;SDS011;2273;48.464;11.926;2023-02-23T15:30:55;15.90;;;12.00;;
4521;SDS011;2273;48.464;11.926;2023-02-23T15:33:24;20.20;;;12.40;;
4521;SDS011;2273;48.464;11.926;2023-02-23T15:38:25;19.60;;;13.30;;
4521;SDS011;2273;48.464;11.926;2023-02-23T15:40:57;20.80;;;10.80;;
4521;SDS011;2273;48.464;11.926;2023-02-23T15:43:25;16.77;;;11.83;;
4521;SDS011;2273;48.464;11.926;2023-02-23T15:45:53;17.23;;;12.50;;
4521;SDS011;2273;48.464;11.926;2023-02-23T15:48:21;21.03;;;13.63;;
4521;SDS011;2273;48.464;11.926;2023-02-23T15:50:55;16.13;;;11.53;;
4521;SDS011;2273;48.464;11.926;2023-02-23T15:56:14;17.00;;;12.03;;
4521;SDS011;2273;48.464;11.926;2023-02-23T15:58:46;19.70;;;11.90;;
4521;SDS011;2273;48.464;11.926;2023-02-23T16:01:19;20.73;;;12.43;;
4521;SDS011;2273;48.464;11.926;2023-02-23T16:04:11;16.70;;;10.93;;
4521;SDS011;2273;48.464;11.926;2023-02-23T16:06:39;16.27;;;11.40;;
4521;SDS011;2273;48.464;11.926;2023-02-23T16:11:46;18.30;;;11.87;;
4521;SDS011;2273;48.464;11.926;2023-02-23T16:14:16;18.83;;;12.30;;
4521;SDS011;2273;48.464;11.926;2023-02-23T16:16:44;15.40;;;11.20;;
4521;SDS011;2273;48.464;11.926;2023-02-23T16:19:14;19.43;;;13.33;;
4521;SDS011;2273;48.464;11.926;2023-02-23T16:21:40;16.13;;;11.57;;
4521;SDS011;2273;48.464;11.926;2023-02-23T16:24:07;15.37;;;11.30;;
4521;SDS011;2273;48.464;11.926;2023-02-23T16:26:36;18.20;;;11.80;;
4521;SDS011;2273;48.464;11.926;2023-02-23T16:29:08;20.83;;;13.27;;
4521;SDS011;2273;48.464;11.926;2023-02-23T16:31:42;17.30;;;12.20;;
4521;SDS011;2273;48.464;11.926;2023-02-23T16:34:18;15.67;;;11.33;;
4521;SDS011;2273;48.464;11.926;2023-02-23T16:37:02;17.07;;;11.00;;
4521;SDS011;2273;48.464;11.926;2023-02-23T16:39:39;14.03;;;10.43;;